Terminal Aerodrome Forecast
Issued by NWS King Salmon, AK

Home | Current Version | Previous Version | Text Only | Print | Product List | Glossary On
Versions: 1 2 3 4 5 6 7 8 9 10 11 12 13 14 15 16 17 18 19 20 21 22 23 24 25 26 27 28 29 30 31 32 33 34 35 36 37 38 39 40
000
FTAK31 PANC 010817 AAA
TAFAKN
TAF AMD
PAKN 010817Z 0108/0206 01009KT P6SM SKC
      TEMPO 0108/0110 -RA OVC015
     FM012000 05006KT P6SM SCT015 SCT025
     FM020400 07008KT P6SM BKN080=

USA.gov is the U.S. government's official web portal to all federal, state and local government web resources and services.